Time;durP1;ratioP1;P1;durP2;ratioP2;P2;SDS_P1;SDS_P2;PMS_P1;PMS_P2;Temp;Humidity;BMP_temperature;BMP_pressure;BME280_temperature;BME280_humidity;BME280_pressure;Samples;Min_cycle;Max_cycle;Signal;HPM_P1;HPM_P2
2023/01/19 00:01:38;;;;;;;4.90;1.67;;;-1.30;99.90;;;;;;4995777;28;20497;-90
2023/01/19 00:04:10;;;;;;;5.50;1.80;;;-1.30;99.90;;;;;;4999389;28;20117;-88
2023/01/19 00:06:38;;;;;;;6.43;1.88;;;-1.40;99.90;;;;;;4996663;28;20049;-88
2023/01/19 00:09:06;;;;;;;4.43;1.50;;;-1.40;99.90;;;;;;4997802;28;20034;-90
2023/01/19 00:11:32;;;;;;;3.27;1.33;;;-1.40;99.90;;;;;;4993488;28;20022;-89
2023/01/19 00:13:58;;;;;;;4.93;1.80;;;-1.40;99.90;;;;;;4989013;28;20466;-90
2023/01/19 00:16:24;;;;;;;4.63;1.50;;;-1.40;99.90;;;;;;4994531;28;20064;-89
2023/01/19 00:18:54;;;;;;;5.00;2.00;;;-1.50;99.90;;;;;;4993657;28;20026;-88
2023/01/19 00:21:21;;;;;;;4.20;2.13;;;-1.40;99.90;;;;;;4998564;28;20026;-89
2023/01/19 00:23:47;;;;;;;8.10;2.10;;;-1.40;99.90;;;;;;4987601;28;20105;-88
2023/01/19 00:26:15;;;;;;;7.37;2.37;;;-1.40;99.90;;;;;;4987966;28;21083;-89
2023/01/19 00:28:44;;;;;;;4.73;1.80;;;-1.50;99.90;;;;;;5001433;28;20042;-89
2023/01/19 00:31:10;;;;;;;6.13;2.10;;;-1.50;99.90;;;;;;4996954;28;20506;-89
2023/01/19 00:33:36;;;;;;;7.23;2.53;;;-1.40;99.90;;;;;;5001440;28;20037;-89
2023/01/19 00:36:03;;;;;;;8.27;1.90;;;-1.50;99.90;;;;;;5001261;28;20022;-89
2023/01/19 00:38:29;;;;;;;5.00;1.80;;;-1.40;99.90;;;;;;4998745;28;20080;-88
2023/01/19 00:40:55;;;;;;;5.33;2.23;;;-1.40;99.90;;;;;;4991387;28;20026;-89
2023/01/19 00:43:21;;;;;;;6.90;1.83;;;-1.30;99.90;;;;;;5005635;28;20026;-89
2023/01/19 00:45:46;;;;;;;4.43;2.20;;;-1.50;99.90;;;;;;5007183;28;20023;-88
2023/01/19 00:48:12;;;;;;;5.23;2.17;;;-1.50;99.90;;;;;;5001773;28;20034;-89
2023/01/19 00:50:38;;;;;;;9.70;2.20;;;-1.30;99.90;;;;;;5002107;28;20030;-89
2023/01/19 01:32:27;;;;;;;12.13;2.57;;;-1.80;99.90;;;;;;5074373;28;20059;-90
2023/01/19 01:36:04;;;;;;;5.00;2.00;;;-1.80;99.90;;;;;;5051786;28;20025;-90
2023/01/19 01:39:02;;;;;;;3.70;1.60;;;-1.80;99.90;;;;;;5022191;28;20128;-90
2023/01/19 01:45:53;;;;;;;4.03;1.77;;;-1.90;99.90;;;;;;5041066;28;20075;-90
2023/01/19 01:48:29;;;;;;;4.25;2.45;;;-1.90;99.90;;;;;;5048885;28;20033;-90
2023/01/19 01:55:08;;;;;;;4.93;1.90;;;-1.90;99.90;;;;;;4996670;28;20495;-90
2023/01/19 01:58:11;;;;;;;7.73;1.80;;;-1.90;99.90;;;;;;4965942;28;20030;-90
2023/01/19 02:17:13;;;;;;;5.70;1.70;;;-2.00;99.90;;;;;;5034573;28;20044;-92
2023/01/19 02:19:42;;;;;;;5.20;2.33;;;-2.10;99.90;;;;;;5035154;28;20044;-90
2023/01/19 02:22:17;;;;;;;5.73;1.80;;;-2.10;99.90;;;;;;5030401;28;20039;-90
2023/01/19 02:24:43;;;;;;;6.47;2.20;;;-2.10;99.90;;;;;;5068392;28;20027;-90
2023/01/19 02:27:10;;;;;;;3.97;1.73;;;-2.00;99.90;;;;;;5074278;28;20029;-90
2023/01/19 02:29:35;;;;;;;5.17;2.10;;;-1.90;99.90;;;;;;5076366;28;20300;-90
2023/01/19 02:32:02;;;;;;;5.90;2.47;;;-1.90;99.90;;;;;;5064573;28;20035;-91
2023/01/19 02:34:28;;;;;;;4.67;2.23;;;-1.90;99.90;;;;;;5075489;28;20016;-91
2023/01/19 02:37:02;;;;;;;5.53;2.27;;;-2.00;99.90;;;;;;5075733;28;20020;-90
2023/01/19 02:39:35;;;;;;;5.10;1.63;;;-2.00;99.90;;;;;;5070352;28;20065;-91
2023/01/19 02:42:38;;;;;;;7.33;2.27;;;-2.00;99.90;;;;;;5076560;28;20025;-89
2023/01/19 02:45:05;;;;;;;;;;;-2.00;99.90;;;;;;5075932;28;20025;-90
2023/01/19 02:47:39;;;;;;;4.57;2.00;;;-2.00;99.90;;;;;;5069238;28;19904;-91
2023/01/19 02:50:40;;;;;;;6.87;1.83;;;-2.00;99.90;;;;;;5078046;28;20112;-90
2023/01/19 02:53:28;;;;;;;4.83;1.90;;;-2.10;99.90;;;;;;5061295;28;20021;-92
2023/01/19 02:56:23;;;;;;;6.17;2.20;;;-2.30;99.90;;;;;;5019801;28;20036;-90
2023/01/19 02:59:14;;;;;;;4.37;1.73;;;-2.20;99.90;;;;;;5079421;28;20021;-90
2023/01/19 03:02:03;;;;;;;6.17;2.10;;;-2.30;99.90;;;;;;5063955;28;20109;-88
2023/01/19 03:05:08;;;;;;;4.10;1.53;;;-2.30;99.90;;;;;;5070158;28;20107;-90
2023/01/19 03:07:56;;;;;;;7.37;2.07;;;-2.30;99.90;;;;;;5078147;28;20046;-90
2023/01/19 03:10:27;;;;;;;6.17;1.70;;;-2.30;99.90;;;;;;5062040;28;20017;-90
2023/01/19 03:13:22;;;;;;;8.07;2.33;;;-2.40;99.90;;;;;;5071566;28;20017;-90
2023/01/19 03:16:04;;;;;;;5.37;1.67;;;-2.30;99.90;;;;;;5065234;28;20042;-91
2023/01/19 03:18:32;;;;;;;5.20;1.95;;;-2.30;99.90;;;;;;5051881;28;20032;-90
2023/01/19 03:21:02;;;;;;;3.37;1.50;;;-2.30;99.90;;;;;;5062339;28;20033;-88
2023/01/19 03:23:31;;;;;;;3.70;1.77;;;-2.20;99.90;;;;;;5076507;28;20488;-91
2023/01/19 03:25:59;;;;;;;5.43;1.90;;;-2.20;99.90;;;;;;5058496;28;20036;-91
2023/01/19 03:28:28;;;;;;;4.37;2.00;;;-2.20;99.90;;;;;;5061859;28;20457;-90
2023/01/19 03:31:00;;;;;;;4.60;1.70;;;-2.20;99.90;;;;;;5064811;28;20032;-90
2023/01/19 03:33:31;;;;;;;;;;;-2.20;99.90;;;;;;5070943;28;20039;-90
2023/01/19 03:36:03;;;;;;;6.80;1.57;;;-2.10;99.90;;;;;;5073690;28;19905;-91
2023/01/19 03:38:34;;;;;;;5.63;1.70;;;-2.20;99.90;;;;;;5069814;28;20017;-90
2023/01/19 03:41:03;;;;;;;5.07;1.60;;;-2.20;99.90;;;;;;5060545;28;20035;-90
2023/01/19 03:43:33;;;;;;;5.60;2.10;;;-2.20;99.90;;;;;;5073626;28;20013;-89
2023/01/19 03:45:59;;;;;;;8.37;2.10;;;-2.30;99.90;;;;;;5081298;28;20027;-90
2023/01/19 03:48:25;;;;;;;5.90;2.07;;;-2.20;99.90;;;;;;5068578;28;20021;-90
2023/01/19 03:50:51;;;;;;;8.70;2.00;;;-2.20;99.90;;;;;;5072179;28;20689;-90
2023/01/19 03:53:19;;;;;;;6.60;2.13;;;-2.20;99.90;;;;;;5073447;28;20067;-91
2023/01/19 03:55:47;;;;;;;4.87;1.77;;;-2.20;99.90;;;;;;5074386;28;20029;-90
2023/01/19 03:58:13;;;;;;;6.20;2.00;;;-2.20;99.90;;;;;;5066793;28;20029;-89
2023/01/19 04:00:39;;;;;;;3.77;1.60;;;-2.10;99.90;;;;;;5073598;28;20035;-90
2023/01/19 04:03:11;;;;;;;7.30;2.20;;;-2.20;99.90;;;;;;5059930;28;20086;-89
2023/01/19 04:05:38;;;;;;;7.75;2.45;;;-2.10;99.90;;;;;;5061911;28;20092;-91
2023/01/19 04:08:04;;;;;;;5.33;2.17;;;-2.10;99.90;;;;;;5071233;28;20025;-90
2023/01/19 04:10:32;;;;;;;6.63;2.00;;;-2.10;99.90;;;;;;5061408;28;20149;-91
2023/01/19 04:12:59;;;;;;;4.93;1.87;;;-2.10;99.90;;;;;;5062166;28;20067;-91
2023/01/19 04:15:25;;;;;;;4.93;2.33;;;-2.10;99.90;;;;;;5067014;28;20040;-90
2023/01/19 04:17:51;;;;;;;8.00;1.80;;;-2.20;99.90;;;;;;5076222;28;20117;-89
2023/01/19 04:20:20;;;;;;;6.13;2.07;;;-2.20;99.90;;;;;;5062985;28;20123;-90
2023/01/19 04:22:46;;;;;;;8.07;2.30;;;-2.30;99.90;;;;;;5074873;28;20017;-90
2023/01/19 04:25:12;;;;;;;4.73;1.77;;;-2.20;99.90;;;;;;5071966;28;20032;-90
2023/01/19 04:27:40;;;;;;;7.57;1.97;;;-2.30;99.90;;;;;;5052032;28;20108;-90
2023/01/19 04:30:10;;;;;;;4.47;1.87;;;-2.40;99.90;;;;;;5066572;28;20024;-90
2023/01/19 04:32:35;;;;;;;7.63;2.27;;;-2.40;99.90;;;;;;5051282;28;20121;-91
2023/01/19 04:35:17;;;;;;;4.97;1.63;;;-2.40;99.90;;;;;;5070938;28;20468;-90
2023/01/19 04:37:46;;;;;;;6.65;2.30;;;-2.30;99.90;;;;;;5059389;28;20094;-89
2023/01/19 04:40:12;;;;;;;5.03;1.67;;;-2.40;99.90;;;;;;5063701;28;20373;-90
2023/01/19 04:42:41;;;;;;;8.13;1.97;;;-2.30;99.90;;;;;;5063928;28;20023;-89
2023/01/19 04:45:07;;;;;;;5.30;1.70;;;-2.40;99.90;;;;;;5069954;28;20020;-91
2023/01/19 04:47:33;;;;;;;6.73;2.40;;;-2.50;99.90;;;;;;5062224;28;20036;-91
2023/01/19 04:49:59;;;;;;;11.00;2.33;;;-2.50;99.90;;;;;;5057057;28;20025;-88
2023/01/19 04:52:24;;;;;;;8.30;2.10;;;-2.50;99.90;;;;;;5065765;28;20043;-90
2023/01/19 04:54:50;;;;;;;4.90;1.97;;;-2.60;99.90;;;;;;5071253;28;20080;-91
2023/01/19 04:57:16;;;;;;;5.30;2.27;;;-2.50;99.90;;;;;;5061603;28;20020;-89
2023/01/19 04:59:50;;;;;;;6.23;2.20;;;-2.50;99.90;;;;;;5057806;28;20331;-89
2023/01/19 05:02:21;;;;;;;6.50;2.63;;;-2.60;99.90;;;;;;5067121;28;20106;-90
2023/01/19 05:04:50;;;;;;;5.83;1.90;;;-2.60;99.90;;;;;;5066005;28;20021;-90
2023/01/19 05:07:19;;;;;;;5.27;1.83;;;-2.50;99.90;;;;;;5075579;28;20027;-90
2023/01/19 05:09:53;;;;;;;5.87;2.47;;;-2.70;99.90;;;;;;5055429;28;20120;-91
2023/01/19 05:12:21;;;;;;;6.03;2.23;;;-2.70;99.90;;;;;;5051758;28;20021;-90
2023/01/19 05:14:50;;;;;;;6.77;2.03;;;-2.70;99.90;;;;;;5062650;28;20048;-90
2023/01/19 05:17:16;;;;;;;5.57;1.83;;;-2.60;99.90;;;;;;5049727;28;20032;-89
2023/01/19 05:19:44;;;;;;;6.43;2.10;;;-2.50;99.90;;;;;;5056646;28;20031;-89
2023/01/19 05:22:10;;;;;;;6.70;2.30;;;-2.40;99.90;;;;;;5055803;28;20056;-89
2023/01/19 05:24:38;;;;;;;9.13;2.50;;;-2.40;99.90;;;;;;5071835;28;20030;-90
2023/01/19 05:27:04;;;;;;;7.47;3.07;;;-2.40;99.90;;;;;;5067237;28;20111;-90
2023/01/19 05:29:30;;;;;;;5.67;2.10;;;-2.40;99.90;;;;;;5058697;28;20109;-89
2023/01/19 05:31:55;;;;;;;5.03;2.03;;;-2.30;99.90;;;;;;5048205;28;20028;-89
2023/01/19 05:34:21;;;;;;;6.47;2.23;;;-2.50;99.90;;;;;;5045471;28;20029;-89
2023/01/19 05:36:46;;;;;;;6.07;2.27;;;-2.50;99.90;;;;;;5069255;28;20024;-89
2023/01/19 05:39:12;;;;;;;7.13;2.40;;;-2.40;99.90;;;;;;5059348;28;20039;-90
2023/01/19 05:44:34;;;;;;;5.60;2.07;;;-2.40;99.90;;;;;;5063314;28;20074;-90
2023/01/19 05:47:03;;;;;;;6.73;2.10;;;-2.40;99.90;;;;;;5057871;28;20033;-90
2023/01/19 05:49:29;;;;;;;3.43;1.80;;;-2.40;99.90;;;;;;5071983;28;20039;-90
2023/01/19 05:51:55;;;;;;;4.83;1.90;;;-2.50;99.90;;;;;;5064259;28;20028;-90
2023/01/19 05:54:20;;;;;;;6.93;2.00;;;-2.40;99.90;;;;;;5070542;28;20021;-89
2023/01/19 05:56:46;;;;;;;3.53;1.63;;;-2.50;99.90;;;;;;5059225;28;20093;-90
2023/01/19 05:59:12;;;;;;;6.47;2.50;;;-2.50;99.90;;;;;;5058802;28;20036;-89
2023/01/19 06:01:38;;;;;;;4.00;2.10;;;-2.50;99.90;;;;;;5068615;28;20031;-90
2023/01/19 06:04:04;;;;;;;5.83;1.70;;;-2.50;99.90;;;;;;5059172;28;20016;-89
2023/01/19 06:06:32;;;;;;;6.43;2.63;;;-2.50;99.90;;;;;;5075268;28;20021;-89
2023/01/19 06:08:58;;;;;;;4.80;1.80;;;-2.50;99.90;;;;;;5050767;28;20381;-89
2023/01/19 06:11:24;;;;;;;4.87;1.63;;;-2.50;99.90;;;;;;5071098;28;20035;-90
2023/01/19 06:13:50;;;;;;;4.57;1.47;;;-2.50;99.90;;;;;;5066493;28;20116;-89
2023/01/19 06:16:58;;;;;;;5.00;1.80;;;-2.40;99.90;;;;;;5057376;28;20068;-92
2023/01/19 06:23:12;;;;;;;4.37;1.73;;;-2.40;99.90;;;;;;5070857;28;20036;-90
2023/01/19 06:28:57;;;;;;;4.37;1.63;;;-2.40;99.90;;;;;;5075320;28;20058;-90
2023/01/19 06:31:39;;;;;;;4.63;1.80;;;-2.30;99.90;;;;;;5062553;28;20029;-91
2023/01/19 06:34:06;;;;;;;9.07;2.15;;;-2.40;99.90;;;;;;5054644;28;20038;-89
2023/01/19 06:37:14;;;;;;;4.73;1.80;;;-2.30;99.90;;;;;;5061662;28;20066;-90
2023/01/19 06:39:47;;;;;;;5.43;1.93;;;-2.30;99.90;;;;;;5077357;28;20040;-90
2023/01/19 06:42:17;;;;;;;4.40;1.70;;;-2.20;99.90;;;;;;5040819;28;20057;-90
2023/01/19 06:45:05;;;;;;;4.97;2.13;;;-2.20;99.90;;;;;;5066080;22;20053;-90
2023/01/19 06:47:33;;;;;;;3.97;1.80;;;-2.20;99.90;;;;;;5055202;28;20721;-90
2023/01/19 06:50:01;;;;;;;5.40;1.77;;;-2.20;99.90;;;;;;5032250;28;20036;-90
2023/01/19 06:52:33;;;;;;;5.87;1.80;;;-2.20;99.90;;;;;;5035332;28;20128;-90
2023/01/19 06:55:09;;;;;;;;;;;-2.20;99.90;;;;;;5035624;28;20518;-90
2023/01/19 07:00:36;;;;;;;5.67;1.83;;;-2.20;99.90;;;;;;5076795;22;20048;-88
2023/01/19 07:03:40;;;;;;;7.03;1.95;;;-2.30;99.90;;;;;;5033308;28;20067;-89
2023/01/19 07:06:14;;;;;;;3.90;1.23;;;-2.30;99.90;;;;;;5045897;28;20032;-88
2023/01/19 07:08:52;;;;;;;4.13;1.27;;;-2.30;99.90;;;;;;5042026;28;20022;-88
2023/01/19 07:11:20;;;;;;;3.90;1.33;;;-2.30;99.90;;;;;;5045844;28;20127;-88
2023/01/19 07:13:58;;;;;;;5.60;1.90;;;-2.30;99.90;;;;;;5044240;28;20105;-89
2023/01/19 07:19:30;;;;;;;4.60;1.03;;;-2.30;99.90;;;;;;5040404;28;20028;-89
2023/01/19 07:21:56;;;;;;;4.15;1.30;;;-2.30;99.90;;;;;;5043761;28;20034;-89
2023/01/19 07:24:52;;;;;;;3.37;1.23;;;-2.20;99.90;;;;;;5046127;28;20025;-88
2023/01/19 07:28:03;;;;;;;2.77;1.03;;;-2.10;99.90;;;;;;5043285;28;20036;-89
2023/01/19 07:30:32;;;;;;;3.77;1.30;;;-2.10;99.90;;;;;;4991049;28;20026;-89
2023/01/19 07:33:14;;;;;;;8.13;1.80;;;-2.00;99.90;;;;;;5051215;28;20036;-88
2023/01/19 07:35:48;;;;;;;3.20;0.85;;;-2.10;99.90;;;;;;5032293;28;20075;-88
2023/01/19 07:38:17;;;;;;;7.43;2.03;;;-2.00;99.90;;;;;;5037336;28;20034;-89
2023/01/19 07:40:49;;;;;;;4.10;1.07;;;-2.00;99.90;;;;;;5047839;28;20040;-89
2023/01/19 07:43:18;;;;;;;2.55;0.82;;;-2.00;99.90;;;;;;5042077;28;20052;-89
2023/01/19 07:45:46;;;;;;;4.97;1.33;;;-2.20;99.90;;;;;;5039753;28;20516;-89
2023/01/19 07:48:12;;;;;;;5.03;1.70;;;-2.20;99.90;;;;;;5049440;28;20110;-89
2023/01/19 07:50:38;;;;;;;3.13;1.20;;;-2.20;99.90;;;;;;5049405;28;20041;-89
2023/01/19 07:53:05;;;;;;;8.70;1.90;;;-2.20;99.90;;;;;;5047371;28;20029;-88
2023/01/19 07:56:15;;;;;;;2.60;1.30;;;-2.40;99.90;;;;;;5045846;28;20026;-89
2023/01/19 07:59:38;;;;;;;2.17;0.87;;;-2.50;99.90;;;;;;5008094;28;20029;-89
2023/01/19 08:16:24;;;;;;;;;;;;;;;;;;;;;
2023/01/19 08:49:18;;;;;;;;;;;;;;;;;;;;;
2023/01/19 08:51:57;;;;;;;4.83;1.50;;;-2.20;99.90;;;;;;5051852;28;20159;-90
2023/01/19 08:55:25;;;;;;;4.03;0.70;;;-2.30;99.90;;;;;;5033659;28;20104;-90
2023/01/19 09:06:29;;;;;;;3.70;1.20;;;-2.30;99.90;;;;;;4951169;28;20046;-89
2023/01/19 09:09:56;;;;;;;3.80;1.17;;;-2.20;99.90;;;;;;4906808;29;20068;-89
2023/01/19 09:13:12;;;;;;;5.13;1.30;;;-2.00;99.90;;;;;;4958515;28;20046;-87
2023/01/19 09:16:34;;;;;;;2.67;1.10;;;-1.80;99.90;;;;;;4947532;28;20074;-89
2023/01/19 09:20:25;;;;;;;3.40;1.37;;;-1.60;99.90;;;;;;4906238;29;20032;-89
2023/01/19 10:54:46;;;;;;;2.50;0.70;;;0.00;99.90;;;;;;1279948;22;20402;-89
2023/01/19 14:06:04;;;;;;;3.83;1.20;;;0.60;99.90;;;;;;1279968;22;20317;-90
2023/01/19 14:08:35;;;;;;;3.85;1.00;;;0.60;99.90;;;;;;5082031;28;20063;-89
2023/01/19 14:11:04;;;;;;;4.43;1.37;;;0.70;99.90;;;;;;5058935;28;20046;-89
2023/01/19 14:13:43;;;;;;;3.00;0.90;;;0.70;99.90;;;;;;5053133;28;20499;-89
2023/01/19 14:16:19;;;;;;;2.57;0.90;;;0.70;99.90;;;;;;5069741;28;20084;-89
2023/01/19 14:19:04;;;;;;;2.70;1.03;;;0.70;99.90;;;;;;5069912;28;20064;-88
2023/01/19 14:21:40;;;;;;;1.83;0.80;;;0.70;99.90;;;;;;5049616;28;20404;-89
2023/01/19 14:24:11;;;;;;;2.33;0.80;;;0.80;99.90;;;;;;5056737;28;20048;-89
2023/01/19 14:26:41;;;;;;;2.90;0.93;;;0.70;99.90;;;;;;5058588;28;20554;-89
2023/01/19 14:29:32;;;;;;;2.57;0.90;;;0.70;99.90;;;;;;5065106;28;20021;-89
2023/01/19 14:32:04;;;;;;;3.50;1.03;;;0.70;99.90;;;;;;5052797;28;20055;-88
2023/01/19 14:34:44;;;;;;;3.38;1.00;;;0.80;99.90;;;;;;5051305;28;20020;-88
2023/01/19 14:37:31;;;;;;;2.87;1.10;;;0.70;99.90;;;;;;5055283;28;20036;-89
2023/01/19 14:40:13;;;;;;;2.40;0.70;;;0.80;99.90;;;;;;5062929;28;20017;-88
2023/01/19 14:43:20;;;;;;;4.50;1.30;;;0.80;99.90;;;;;;5069033;28;20028;-89
2023/01/19 14:45:56;;;;;;;3.17;1.33;;;0.80;99.90;;;;;;5047183;28;20025;-88
2023/01/19 14:48:22;;;;;;;3.07;1.10;;;0.80;99.90;;;;;;5054488;28;20024;-89
2023/01/19 14:50:52;;;;;;;2.77;1.00;;;0.80;99.90;;;;;;5066403;28;20040;-89
2023/01/19 14:53:27;;;;;;;5.67;1.50;;;0.80;99.90;;;;;;5067932;28;20017;-88
2023/01/19 14:56:03;;;;;;;3.67;1.40;;;0.80;99.90;;;;;;5063294;28;20032;-89
2023/01/19 15:02:57;;;;;;;;;;;;;;;;;;;;;
2023/01/19 15:06:00;;;;;;;4.63;1.43;;;0.80;99.90;;;;;;5010220;28;20030;-88
2023/01/19 15:16:29;;;;;;;3.20;1.40;;;0.80;99.90;;;;;;5439195;22;20045;-91
2023/01/19 15:21:32;;;;;;;2.70;0.77;;;0.80;99.90;;;;;;5217980;22;20050;-90
2023/01/19 15:23:59;;;;;;;1.97;0.77;;;0.80;99.90;;;;;;5098666;28;20004;-89
2023/01/19 15:26:40;;;;;;;3.67;0.97;;;0.80;99.90;;;;;;5087115;28;20047;-89
2023/01/19 15:29:35;;;;;;;3.07;1.37;;;0.80;99.90;;;;;;5057584;28;20121;-91
2023/01/19 15:32:32;;;;;;;7.43;1.30;;;0.80;99.90;;;;;;5075495;28;20075;-91
2023/01/19 15:35:40;;;;;;;3.77;1.00;;;0.90;99.90;;;;;;5073461;28;20047;-91
2023/01/19 15:38:30;;;;;;;4.13;1.10;;;0.90;99.90;;;;;;5066513;28;20504;-90
2023/01/19 15:41:05;;;;;;;4.40;1.13;;;0.90;99.90;;;;;;5054799;28;20044;-92
2023/01/19 15:43:30;;;;;;;3.90;0.93;;;0.90;99.90;;;;;;5044211;28;20035;-90
2023/01/19 15:46:12;;;;;;;3.70;1.13;;;0.90;99.90;;;;;;5053648;28;20020;-90
2023/01/19 15:49:22;;;;;;;3.23;1.17;;;0.90;99.90;;;;;;5058767;28;20000;-91
2023/01/19 15:52:07;;;;;;;2.63;0.90;;;0.90;99.90;;;;;;5066502;28;20037;-91
2023/01/19 15:58:19;;;;;;;4.50;1.00;;;0.90;99.90;;;;;;5022614;28;20034;-92
2023/01/19 16:01:21;;;;;;;3.10;1.10;;;0.90;99.90;;;;;;5003131;28;20029;-92
2023/01/19 16:03:55;;;;;;;1.93;0.80;;;0.80;99.90;;;;;;5022844;28;20031;-91
2023/01/19 16:06:48;;;;;;;2.87;1.37;;;0.80;99.90;;;;;;5015737;28;20026;-92
2023/01/19 16:09:20;;;;;;;5.67;1.50;;;0.80;99.90;;;;;;5095330;28;20040;-92
2023/01/19 16:11:59;;;;;;;3.30;0.93;;;0.80;99.90;;;;;;5064122;28;20017;-91
2023/01/19 16:14:51;;;;;;;2.77;1.00;;;0.80;99.90;;;;;;5076538;28;20025;-91
2023/01/19 16:17:35;;;;;;;3.17;0.90;;;0.80;99.90;;;;;;5091410;28;20035;-91
2023/01/19 16:20:09;;;;;;;3.27;1.13;;;0.80;99.90;;;;;;5069398;28;20020;-90
2023/01/19 16:22:38;;;;;;;2.63;0.90;;;0.80;99.90;;;;;;5071349;28;20024;-91
2023/01/19 16:25:30;;;;;;;4.27;0.90;;;0.80;99.90;;;;;;5072445;28;20502;-91
2023/01/19 16:28:20;;;;;;;2.70;0.97;;;0.80;99.90;;;;;;5069331;28;20088;-91
2023/01/19 16:30:58;;;;;;;1.87;0.67;;;0.80;99.90;;;;;;5067307;28;20037;-91
2023/01/19 16:34:04;;;;;;;3.50;1.10;;;0.80;99.90;;;;;;5069498;28;20079;-91
2023/01/19 16:40:46;;;;;;;1.93;0.83;;;0.80;99.90;;;;;;5019402;28;20034;-91
2023/01/19 16:43:06;;;;;;;3.90;0.90;;;0.70;99.90;;;;;;5078025;28;20063;-92
2023/01/19 16:46:27;;;;;;;3.77;1.17;;;0.70;99.90;;;;;;5069483;28;20028;-91
2023/01/19 16:49:18;;;;;;;1.50;0.80;;;0.70;99.90;;;;;;5021694;28;20517;-92
2023/01/19 16:59:40;;;;;;;2.03;0.73;;;0.70;99.90;;;;;;4973278;28;20505;-92
2023/01/19 18:17:21;;;;;;;;;;;;;;;;;;;;;
2023/01/19 22:41:46;;;;;;;7.50;2.70;;;-0.40;99.90;;;;;;3685836;22;20050;-92
2023/01/19 22:51:12;;;;;;;;;;;;;;;;;;;;;
2023/01/19 23:24:49;;;;;;;6.53;2.63;;;-0.20;99.90;;;;;;5031821;28;20498;-91
